createdAt,value
2023-01-19T00:00:29.962Z,28.79
2023-01-19T00:01:00.013Z,28.78
2023-01-19T00:01:30.123Z,28.81
2023-01-19T00:02:00.126Z,28.83
2023-01-19T00:02:30.238Z,28.81
2023-01-19T00:03:00.267Z,28.82
2023-01-19T00:03:30.237Z,28.85
2023-01-19T00:04:00.353Z,28.78
2023-01-19T00:04:30.347Z,28.78
2023-01-19T00:05:00.462Z,28.78
2023-01-19T00:05:30.463Z,28.73
2023-01-19T00:06:00.504Z,28.73
2023-01-19T00:06:30.567Z,28.75
2023-01-19T00:07:00.602Z,28.75
2023-01-19T00:07:30.602Z,28.73
2023-01-19T00:08:00.995Z,28.76
2023-01-19T00:08:30.724Z,28.70
2023-01-19T00:09:00.730Z,28.75
2023-01-19T00:09:30.868Z,28.70
2023-01-19T00:10:00.835Z,28.63
2023-01-19T00:10:30.953Z,28.68
2023-01-19T00:11:01.072Z,28.66
2023-01-19T00:11:31.189Z,28.72
2023-01-19T00:12:01.288Z,28.72
2023-01-19T00:12:31.383Z,28.72
2023-01-19T00:13:01.999Z,28.73
2023-01-19T00:13:31.503Z,28.72
2023-01-19T00:14:01.621Z,28.67
2023-01-19T00:14:31.676Z,28.68
2023-01-19T00:15:01.751Z,28.72
2023-01-19T00:15:31.833Z,28.70
2023-01-19T00:16:01.967Z,28.70
2023-01-19T00:16:32.046Z,28.72
2023-01-19T00:17:02.021Z,28.75
2023-01-19T00:17:32.119Z,28.61
2023-01-19T00:18:02.185Z,28.73
2023-01-19T00:18:32.271Z,28.73
2023-01-19T00:19:02.354Z,28.75
2023-01-19T00:19:32.433Z,28.79
2023-01-19T00:20:02.512Z,28.74
2023-01-19T00:20:32.605Z,28.75
2023-01-19T00:21:02.665Z,28.75
2023-01-19T00:21:32.767Z,28.74
2023-01-19T00:22:02.843Z,28.72
2023-01-19T00:22:32.964Z,28.72
2023-01-19T00:23:03.367Z,28.71
2023-01-19T00:23:33.132Z,28.64
2023-01-19T00:24:03.261Z,28.70
2023-01-19T00:24:33.389Z,28.66
2023-01-19T00:25:03.485Z,28.61
2023-01-19T00:25:33.485Z,28.73
2023-01-19T00:26:03.481Z,28.73
2023-01-19T00:26:33.601Z,28.68
2023-01-19T00:27:03.714Z,28.73
2023-01-19T00:27:33.728Z,28.72
2023-01-19T00:28:03.732Z,28.70
2023-01-19T00:28:33.729Z,28.73
2023-01-19T00:29:03.729Z,28.73
2023-01-19T00:29:33.754Z,28.67
2023-01-19T00:30:03.856Z,28.73
2023-01-19T00:30:33.849Z,28.68
2023-01-19T00:31:03.947Z,28.76
2023-01-19T00:31:33.960Z,28.68
2023-01-19T00:32:03.881Z,28.68
2023-01-19T00:32:34.005Z,28.65
2023-01-19T00:33:04.281Z,28.68
2023-01-19T00:33:34.036Z,28.73
2023-01-19T00:34:04.151Z,28.70
2023-01-19T00:34:34.266Z,28.74
2023-01-19T00:35:04.268Z,28.76
2023-01-19T00:35:34.297Z,28.68
2023-01-19T00:36:04.266Z,28.71
2023-01-19T00:36:34.266Z,28.73
2023-01-19T00:37:04.275Z,28.74
2023-01-19T00:37:34.273Z,28.76
2023-01-19T00:38:04.296Z,28.72
2023-01-19T00:38:34.282Z,28.74
2023-01-19T00:39:04.330Z,28.74
2023-01-19T00:39:34.340Z,28.74
2023-01-19T00:40:04.541Z,28.73
2023-01-19T00:40:34.528Z,28.70
2023-01-19T00:41:04.517Z,28.78
2023-01-19T00:41:34.696Z,28.71
2023-01-19T00:42:04.671Z,28.73
2023-01-19T00:42:34.807Z,28.74
2023-01-19T00:43:04.801Z,28.71
2023-01-19T00:43:34.777Z,28.76
2023-01-19T00:44:04.770Z,28.73
2023-01-19T00:44:34.889Z,28.74
2023-01-19T00:45:04.883Z,28.74
2023-01-19T00:45:35.063Z,28.76
2023-01-19T00:46:05.125Z,28.76
2023-01-19T00:46:35.128Z,28.79
2023-01-19T00:47:05.238Z,28.79
2023-01-19T00:47:35.361Z,28.77
2023-01-19T00:48:05.356Z,28.76
2023-01-19T00:48:35.351Z,28.80
2023-01-19T00:49:05.344Z,28.80
2023-01-19T00:49:35.358Z,28.73
2023-01-19T00:50:05.461Z,28.73
2023-01-19T00:50:35.583Z,28.74
2023-01-19T00:51:05.589Z,28.74
2023-01-19T00:51:35.706Z,28.74
2023-01-19T00:52:05.696Z,28.77
2023-01-19T00:52:35.692Z,28.76
2023-01-19T00:53:05.818Z,28.77
2023-01-19T00:53:35.822Z,28.77
2023-01-19T00:54:05.823Z,28.70
2023-01-19T00:54:35.944Z,28.76
2023-01-19T00:55:05.937Z,28.71
2023-01-19T00:55:36.082Z,28.74
2023-01-19T00:56:06.176Z,28.76
2023-01-19T00:56:36.168Z,28.76
2023-01-19T00:57:06.283Z,28.71
2023-01-19T00:57:36.400Z,28.80
2023-01-19T00:58:06.406Z,28.82
2023-01-19T00:58:36.415Z,28.73
2023-01-19T00:59:06.518Z,28.73
2023-01-19T00:59:36.512Z,28.79
2023-01-19T01:00:06.631Z,28.79
2023-01-19T01:00:36.748Z,28.74
2023-01-19T01:01:06.866Z,28.79
2023-01-19T01:01:45.351Z,28.74
2023-01-19T01:02:07.126Z,28.77
2023-01-19T01:02:37.167Z,28.76
2023-01-19T01:03:07.071Z,28.79
2023-01-19T01:03:37.027Z,28.74
2023-01-19T01:04:07.136Z,28.76
2023-01-19T01:04:37.253Z,28.76
2023-01-19T01:05:07.385Z,28.76
2023-01-19T01:05:37.371Z,28.77
2023-01-19T01:06:07.500Z,28.73
2023-01-19T01:06:37.489Z,28.76
2023-01-19T01:07:07.606Z,28.80
2023-01-19T01:07:37.734Z,28.74
2023-01-19T01:08:07.753Z,28.74
2023-01-19T01:08:37.741Z,28.73
2023-01-19T01:09:07.871Z,28.70
2023-01-19T01:09:37.864Z,28.79
2023-01-19T01:10:07.869Z,28.73
2023-01-19T01:10:38.003Z,28.70
2023-01-19T01:11:08.099Z,28.71
2023-01-19T01:11:38.091Z,28.74
2023-01-19T01:12:08.193Z,28.71
2023-01-19T01:12:38.230Z,28.74
2023-01-19T01:13:21.236Z,28.76
2023-01-19T01:13:38.323Z,28.76
2023-01-19T01:14:08.421Z,28.78
2023-01-19T01:14:38.423Z,28.76
2023-01-19T01:15:08.497Z,28.76
2023-01-19T01:15:38.556Z,28.76
2023-01-19T01:16:08.664Z,28.73
2023-01-19T01:16:38.864Z,28.80
2023-01-19T01:17:08.841Z,28.71
2023-01-19T01:17:38.925Z,28.74
2023-01-19T01:18:09.061Z,28.77
2023-01-19T01:18:39.015Z,28.77
2023-01-19T01:19:09.112Z,28.79
2023-01-19T01:19:39.172Z,28.76
2023-01-19T01:20:09.260Z,28.82
2023-01-19T01:20:39.336Z,28.74
2023-01-19T01:21:09.445Z,28.74
2023-01-19T01:21:39.497Z,28.74
2023-01-19T01:22:09.611Z,28.79
2023-01-19T01:22:39.605Z,28.79
2023-01-19T01:23:09.628Z,28.80
2023-01-19T01:23:39.617Z,28.80
2023-01-19T01:24:09.737Z,28.85
2023-01-19T01:24:39.731Z,28.79
2023-01-19T01:25:09.849Z,28.79
2023-01-19T01:25:39.847Z,28.77
2023-01-19T01:26:09.882Z,28.72
2023-01-19T01:26:39.853Z,28.76
2023-01-19T01:27:09.970Z,28.71
2023-01-19T01:27:39.956Z,28.68
2023-01-19T01:28:10.116Z,28.79
2023-01-19T01:28:40.115Z,28.72
2023-01-19T01:29:10.120Z,28.74
2023-01-19T01:29:40.222Z,28.77
2023-01-19T01:30:10.219Z,28.72
2023-01-19T01:30:40.334Z,28.77
2023-01-19T01:31:10.308Z,28.76
2023-01-19T01:31:40.360Z,28.73
2023-01-19T01:32:10.343Z,28.74
2023-01-19T01:32:40.465Z,28.75
2023-01-19T01:33:10.595Z,28.83
2023-01-19T01:33:41.902Z,28.77
2023-01-19T01:34:10.662Z,28.81
2023-01-19T01:34:40.653Z,28.82
2023-01-19T01:35:10.771Z,28.72
2023-01-19T01:35:40.767Z,28.79
2023-01-19T01:36:10.761Z,28.84
2023-01-19T01:36:40.877Z,28.74
2023-01-19T01:37:10.873Z,28.74
2023-01-19T01:37:40.895Z,28.80
2023-01-19T01:38:11.018Z,28.76
2023-01-19T01:38:41.054Z,28.80
2023-01-19T01:39:11.033Z,28.78
2023-01-19T01:39:41.028Z,28.81
2023-01-19T01:40:11.147Z,28.80
2023-01-19T01:40:41.264Z,28.79
2023-01-19T01:41:11.362Z,28.75
2023-01-19T01:41:41.335Z,28.80
2023-01-19T01:42:11.411Z,28.77
2023-01-19T01:42:41.528Z,28.75
2023-01-19T01:43:11.674Z,28.74
2023-01-19T01:43:41.672Z,28.85
2023-01-19T01:44:11.785Z,28.80
2023-01-19T01:44:41.782Z,28.79
2023-01-19T01:45:11.905Z,28.72
2023-01-19T01:45:42.045Z,28.77
2023-01-19T01:46:12.278Z,28.77
2023-01-19T01:46:42.139Z,28.77
2023-01-19T01:47:12.256Z,28.75
2023-01-19T01:47:42.259Z,28.77
2023-01-19T01:48:12.425Z,28.75
2023-01-19T01:48:42.420Z,28.79
2023-01-19T01:49:12.416Z,28.75
2023-01-19T01:49:42.425Z,28.80
2023-01-19T01:50:12.576Z,28.78
2023-01-19T01:50:42.560Z,28.80
2023-01-19T01:51:12.685Z,28.83
2023-01-19T01:51:42.678Z,28.77
2023-01-19T01:52:12.796Z,28.79
2023-01-19T01:52:42.795Z,28.77
2023-01-19T01:53:12.988Z,28.75
2023-01-19T01:53:42.836Z,28.81
2023-01-19T01:54:12.960Z,28.79
2023-01-19T01:54:43.082Z,28.87
2023-01-19T01:55:13.191Z,28.79
2023-01-19T01:55:43.192Z,28.80
2023-01-19T01:56:13.181Z,28.77
2023-01-19T01:56:43.323Z,28.77
2023-01-19T01:57:13.299Z,28.77
2023-01-19T01:57:43.301Z,28.77
2023-01-19T01:58:13.439Z,28.75
2023-01-19T01:58:43.431Z,28.79
2023-01-19T01:59:13.428Z,28.81
2023-01-19T01:59:43.558Z,28.78
2023-01-19T02:00:13.665Z,28.79
2023-01-19T02:00:43.684Z,28.74
2023-01-19T02:01:13.847Z,28.79
2023-01-19T02:01:44.032Z,28.77
2023-01-19T02:02:13.930Z,28.72
2023-01-19T02:02:43.927Z,28.75
2023-01-19T02:03:14.102Z,28.72
2023-01-19T02:03:44.087Z,28.72
2023-01-19T02:04:14.208Z,28.72
2023-01-19T02:04:44.212Z,28.72
2023-01-19T02:05:14.321Z,28.77
2023-01-19T02:05:44.319Z,28.74
2023-01-19T02:06:14.432Z,28.72
2023-01-19T02:06:44.436Z,28.81
2023-01-19T02:07:14.445Z,28.78
2023-01-19T02:07:44.548Z,28.78
2023-01-19T02:08:14.587Z,28.79
2023-01-19T02:08:44.593Z,28.73
2023-01-19T02:09:14.586Z,28.79
2023-01-19T02:09:44.592Z,28.77
2023-01-19T02:10:14.729Z,28.75
2023-01-19T02:10:44.837Z,28.78
2023-01-19T02:11:14.837Z,28.75
2023-01-19T02:11:44.847Z,28.75
2023-01-19T02:12:15.045Z,28.81
2023-01-19T02:12:44.969Z,28.81
2023-01-19T02:13:15.089Z,28.77
2023-01-19T02:13:45.261Z,28.77
2023-01-19T02:14:15.284Z,28.78
2023-01-19T02:14:45.364Z,28.79
2023-01-19T02:15:15.453Z,28.84
2023-01-19T02:15:45.531Z,28.78
2023-01-19T02:16:15.671Z,28.75
2023-01-19T02:16:45.781Z,28.74
2023-01-19T02:17:15.727Z,28.78
2023-01-19T02:17:45.806Z,28.72
2023-01-19T02:18:15.918Z,28.73
2023-01-19T02:18:45.993Z,28.77
2023-01-19T02:19:16.072Z,28.75
2023-01-19T02:19:46.149Z,28.79
2023-01-19T02:20:16.241Z,28.81
2023-01-19T02:20:46.308Z,28.83
2023-01-19T02:21:16.394Z,28.79
2023-01-19T02:21:46.468Z,28.81
2023-01-19T02:22:16.525Z,28.81
2023-01-19T02:22:46.519Z,28.77
2023-01-19T02:23:16.643Z,28.83
2023-01-19T02:23:46.766Z,28.81
2023-01-19T02:24:16.761Z,28.75
2023-01-19T02:24:46.752Z,28.72
2023-01-19T02:25:16.748Z,28.74
2023-01-19T02:25:46.759Z,28.75
2023-01-19T02:26:16.859Z,28.78
2023-01-19T02:26:47.001Z,28.74
2023-01-19T02:27:17.020Z,28.75
2023-01-19T02:27:47.002Z,28.67
2023-01-19T02:28:17.167Z,28.72
2023-01-19T02:28:47.164Z,28.74
2023-01-19T02:29:17.160Z,28.66
2023-01-19T02:29:47.280Z,28.75
2023-01-19T02:30:17.406Z,28.74
2023-01-19T02:30:47.526Z,28.78
2023-01-19T02:31:17.523Z,28.77
2023-01-19T02:31:47.504Z,28.77
2023-01-19T02:32:17.621Z,28.82
2023-01-19T02:32:47.744Z,28.74
2023-01-19T02:33:17.756Z,28.75
2023-01-19T02:33:47.745Z,28.73
2023-01-19T02:34:17.870Z,28.70
2023-01-19T02:34:47.855Z,28.72
2023-01-19T02:35:17.967Z,28.77
2023-01-19T02:35:47.994Z,28.78
2023-01-19T02:36:17.985Z,28.74
2023-01-19T02:36:47.981Z,28.73
2023-01-19T02:37:18.103Z,28.77
2023-01-19T02:37:48.094Z,28.73
2023-01-19T02:38:18.243Z,28.72
2023-01-19T02:38:48.235Z,28.77
2023-01-19T02:39:18.358Z,28.78
2023-01-19T02:39:48.478Z,28.73
2023-01-19T02:40:18.471Z,28.79
2023-01-19T02:40:48.584Z,28.78
2023-01-19T02:41:18.703Z,28.73
2023-01-19T02:41:48.702Z,28.75
2023-01-19T02:42:18.721Z,28.72
2023-01-19T02:42:48.732Z,28.79
2023-01-19T02:43:18.848Z,28.79
2023-01-19T02:43:48.839Z,28.76
2023-01-19T02:44:18.831Z,28.81
2023-01-19T02:44:48.829Z,28.75
2023-01-19T02:45:18.946Z,28.87
2023-01-19T02:45:49.097Z,28.76
2023-01-19T02:46:19.119Z,28.78
2023-01-19T02:46:49.094Z,28.81
2023-01-19T02:47:19.089Z,28.75
2023-01-19T02:47:49.088Z,28.72
2023-01-19T02:48:19.243Z,28.73
2023-01-19T02:48:49.292Z,28.76
2023-01-19T02:49:19.291Z,28.79
2023-01-19T02:49:49.284Z,28.73
2023-01-19T02:50:19.406Z,28.76
2023-01-19T02:50:49.442Z,28.75
2023-01-19T02:51:19.429Z,28.78
2023-01-19T02:51:49.545Z,28.79
2023-01-19T02:52:19.580Z,28.78
2023-01-19T02:52:49.568Z,28.82
2023-01-19T02:53:19.694Z,28.78
2023-01-19T02:53:49.695Z,28.79
2023-01-19T02:54:19.804Z,28.76
2023-01-19T02:54:49.919Z,28.79
2023-01-19T02:55:19.936Z,28.75
2023-01-19T02:55:49.917Z,28.78
2023-01-19T02:56:19.913Z,28.79
2023-01-19T02:56:49.917Z,28.79
2023-01-19T02:57:20.049Z,28.73
2023-01-19T02:57:50.046Z,28.78
2023-01-19T02:58:20.192Z,28.79
2023-01-19T02:58:50.282Z,28.81
2023-01-19T02:59:20.398Z,28.78
2023-01-19T02:59:50.394Z,28.72
2023-01-19T03:00:20.511Z,28.81
2023-01-19T03:00:50.660Z,28.75
2023-01-19T03:01:20.780Z,28.76
2023-01-19T03:01:50.860Z,28.76
2023-01-19T03:02:20.874Z,28.78
2023-01-19T03:02:50.777Z,28.72
2023-01-19T03:03:20.757Z,28.75
2023-01-19T03:03:50.880Z,28.72
2023-01-19T03:04:20.871Z,28.70
2023-01-19T03:04:50.997Z,28.75
2023-01-19T03:05:21.109Z,28.76
2023-01-19T03:05:51.109Z,28.74
2023-01-19T03:06:21.097Z,28.73
2023-01-19T03:06:51.213Z,28.70
2023-01-19T03:07:21.210Z,28.69
2023-01-19T03:07:51.212Z,28.72
2023-01-19T03:08:21.325Z,28.68
2023-01-19T03:08:51.449Z,28.70
2023-01-19T03:09:21.443Z,28.78
2023-01-19T03:09:51.563Z,28.76
2023-01-19T03:10:21.686Z,28.76
2023-01-19T03:10:51.683Z,28.78
2023-01-19T03:11:21.694Z,28.78
2023-01-19T03:11:51.796Z,28.72
2023-01-19T03:12:21.876Z,28.73
2023-01-19T03:12:51.960Z,28.73
2023-01-19T03:13:22.050Z,28.78
2023-01-19T03:13:52.196Z,28.84
2023-01-19T03:14:22.242Z,28.83
2023-01-19T03:14:52.317Z,28.76
2023-01-19T03:15:22.389Z,28.78
2023-01-19T03:15:52.680Z,28.79
2023-01-19T03:16:22.965Z,28.79
2023-01-19T03:16:52.607Z,28.84
2023-01-19T03:17:22.589Z,28.87
2023-01-19T03:17:52.674Z,28.88
2023-01-19T03:18:22.754Z,28.87
2023-01-19T03:18:52.840Z,28.88
2023-01-19T03:19:22.927Z,28.90
2023-01-19T03:19:53.007Z,28.91
2023-01-19T03:20:23.077Z,28.94
2023-01-19T03:20:53.158Z,28.93
2023-01-19T03:21:23.240Z,28.93
2023-01-19T03:21:53.320Z,28.91
2023-01-19T03:22:23.669Z,28.91
2023-01-19T03:22:53.530Z,28.96
2023-01-19T03:23:23.524Z,28.93
2023-01-19T03:23:53.650Z,28.97
2023-01-19T03:24:23.645Z,28.91
2023-01-19T03:24:53.763Z,28.89
2023-01-19T03:25:23.757Z,28.93
2023-01-19T03:25:53.752Z,28.89
2023-01-19T03:26:23.746Z,28.94
2023-01-19T03:26:53.861Z,28.93
2023-01-19T03:27:23.856Z,28.90
2023-01-19T03:27:53.855Z,28.91
2023-01-19T03:28:23.990Z,28.83
2023-01-19T03:28:54.021Z,28.83
2023-01-19T03:29:23.999Z,28.85
2023-01-19T03:29:54.115Z,28.85
2023-01-19T03:30:24.112Z,28.78
2023-01-19T03:30:54.306Z,28.82
2023-01-19T03:31:24.276Z,28.85
2023-01-19T03:31:54.281Z,28.86
2023-01-19T03:32:24.280Z,28.85
2023-01-19T03:32:54.269Z,28.85
2023-01-19T03:33:24.264Z,28.85
2023-01-19T03:33:54.383Z,28.88
2023-01-19T03:34:24.498Z,28.85
2023-01-19T03:34:54.626Z,28.80
2023-01-19T03:35:24.615Z,28.80
2023-01-19T03:35:54.756Z,28.80
2023-01-19T03:36:24.750Z,28.86
2023-01-19T03:36:54.753Z,28.88
2023-01-19T03:37:24.760Z,28.85
2023-01-19T03:37:54.749Z,28.86
2023-01-19T03:38:24.866Z,28.79
2023-01-19T03:38:54.984Z,28.80
2023-01-19T03:39:25.096Z,28.83
2023-01-19T03:39:55.178Z,28.80
2023-01-19T03:40:25.177Z,28.82
2023-01-19T03:40:55.295Z,28.80
2023-01-19T03:41:25.385Z,28.83
2023-01-19T03:41:55.382Z,28.79
2023-01-19T03:42:25.521Z,28.85
2023-01-19T03:42:55.522Z,28.88
2023-01-19T03:43:25.520Z,28.86
2023-01-19T03:43:55.548Z,28.85
2023-01-19T03:44:25.517Z,28.85
2023-01-19T03:44:55.519Z,28.85
2023-01-19T03:45:25.536Z,28.86
2023-01-19T03:45:55.541Z,28.86
2023-01-19T03:46:25.578Z,28.83
2023-01-19T03:46:55.551Z,28.85
2023-01-19T03:47:25.666Z,28.86
2023-01-19T03:47:55.788Z,28.88
2023-01-19T03:48:25.786Z,28.80
2023-01-19T03:48:55.922Z,28.83
2023-01-19T03:49:25.922Z,28.90
2023-01-19T03:49:56.037Z,28.88
2023-01-19T03:50:26.155Z,28.83
2023-01-19T03:50:56.177Z,28.83
2023-01-19T03:51:26.173Z,28.76
2023-01-19T03:51:56.291Z,28.77
2023-01-19T03:52:26.413Z,28.86
2023-01-19T03:52:56.406Z,28.83
2023-01-19T03:53:26.522Z,28.82
2023-01-19T03:53:56.651Z,28.80
2023-01-19T03:54:26.662Z,28.82
2023-01-19T03:54:56.763Z,28.82
2023-01-19T03:55:26.885Z,28.80
2023-01-19T03:55:56.881Z,28.83
2023-01-19T03:56:27.001Z,28.79
2023-01-19T03:56:56.994Z,28.79
2023-01-19T03:57:27.156Z,28.85
2023-01-19T03:57:57.131Z,28.88
2023-01-19T03:58:27.129Z,28.82
2023-01-19T03:58:57.292Z,28.92
2023-01-19T03:59:27.372Z,28.94
2023-01-19T03:59:57.349Z,28.91
2023-01-19T04:00:27.334Z,28.93
2023-01-19T04:00:57.496Z,28.88
2023-01-19T04:01:27.746Z,28.91
2023-01-19T04:01:57.683Z,28.87
2023-01-19T04:02:27.658Z,28.88
2023-01-19T04:02:57.778Z,28.89
2023-01-19T04:03:27.723Z,28.79
2023-01-19T04:03:57.855Z,28.81
2023-01-19T04:04:27.846Z,28.77
2023-01-19T04:04:57.858Z,28.72
2023-01-19T04:05:27.970Z,28.74
2023-01-19T04:05:58.075Z,28.72
2023-01-19T04:06:28.078Z,28.74
2023-01-19T04:06:58.193Z,28.73
2023-01-19T04:07:28.311Z,28.66
2023-01-19T04:07:58.434Z,28.64
2023-01-19T04:08:28.416Z,28.63
2023-01-19T04:08:58.467Z,28.60
2023-01-19T04:09:28.452Z,28.57
2023-01-19T04:09:58.575Z,28.60
2023-01-19T04:10:28.565Z,28.56
2023-01-19T04:10:58.678Z,28.51
2023-01-19T04:11:28.793Z,28.54
2023-01-19T04:11:58.902Z,28.51
2023-01-19T04:12:29.010Z,28.46
2023-01-19T04:12:59.578Z,28.52
2023-01-19T04:13:29.087Z,28.49
2023-01-19T04:13:59.184Z,28.50
2023-01-19T04:14:29.259Z,28.45
2023-01-19T04:14:59.361Z,28.45
2023-01-19T04:15:29.416Z,28.42
2023-01-19T04:15:59.554Z,28.43
2023-01-19T04:16:29.520Z,28.41
2023-01-19T04:16:59.582Z,28.39
2023-01-19T04:17:29.677Z,28.36
2023-01-19T04:17:59.781Z,28.40
2023-01-19T04:18:29.825Z,28.41
2023-01-19T04:18:59.920Z,28.36
2023-01-19T04:19:29.989Z,28.30
2023-01-19T04:20:00.064Z,28.35
2023-01-19T04:20:30.195Z,28.33
2023-01-19T04:21:00.250Z,28.41
2023-01-19T04:21:30.329Z,28.34
2023-01-19T04:22:00.417Z,28.33
2023-01-19T04:22:30.461Z,28.32
2023-01-19T04:23:00.983Z,28.34
2023-01-19T04:23:30.463Z,28.30
2023-01-19T04:24:00.584Z,28.32
2023-01-19T04:24:30.702Z,28.28
2023-01-19T04:25:00.699Z,28.31
2023-01-19T04:25:30.816Z,28.29
2023-01-19T04:26:00.815Z,28.29
2023-01-19T04:26:30.813Z,28.25
2023-01-19T04:27:00.931Z,28.29
2023-01-19T04:27:30.924Z,28.19
2023-01-19T04:28:01.055Z,28.25
2023-01-19T04:28:31.037Z,28.28
2023-01-19T04:29:01.195Z,28.27
2023-01-19T04:29:31.172Z,28.25
2023-01-19T04:30:01.173Z,28.23
2023-01-19T04:30:31.187Z,28.28
2023-01-19T04:31:01.343Z,28.26
2023-01-19T04:31:31.371Z,28.23
2023-01-19T04:32:01.431Z,28.23
2023-01-19T04:32:31.551Z,28.22
2023-01-19T04:33:02.096Z,28.23
2023-01-19T04:33:31.645Z,28.24
2023-01-19T04:34:01.758Z,28.23
2023-01-19T04:34:31.879Z,28.25
2023-01-19T04:35:01.999Z,28.26
2023-01-19T04:35:31.992Z,28.26
2023-01-19T04:36:02.119Z,28.25
2023-01-19T04:36:32.150Z,28.22
2023-01-19T04:37:02.149Z,28.25
2023-01-19T04:37:32.285Z,28.23
2023-01-19T04:38:02.287Z,28.25
2023-01-19T04:38:32.333Z,28.19
2023-01-19T04:39:02.445Z,28.22
2023-01-19T04:39:32.436Z,28.23
2023-01-19T04:40:02.560Z,28.23
2023-01-19T04:40:32.667Z,28.26
2023-01-19T04:41:02.787Z,28.26
2023-01-19T04:41:32.898Z,28.26
2023-01-19T04:42:02.892Z,28.25
2023-01-19T04:42:33.019Z,28.18
2023-01-19T04:43:03.507Z,28.20
2023-01-19T04:43:33.083Z,28.22
2023-01-19T04:44:03.198Z,28.33
2023-01-19T04:44:33.195Z,28.37
2023-01-19T04:45:03.313Z,28.48
2023-01-19T04:45:33.318Z,28.46
2023-01-19T04:46:03.452Z,28.40
2023-01-19T04:46:33.580Z,28.36
2023-01-19T04:47:03.585Z,28.40
2023-01-19T04:47:33.591Z,28.40
2023-01-19T04:48:03.580Z,28.39
2023-01-19T04:48:33.586Z,28.39
2023-01-19T04:49:03.698Z,28.44
2023-01-19T04:49:33.813Z,28.41
2023-01-19T04:50:03.938Z,28.46
2023-01-19T04:50:34.088Z,28.47
2023-01-19T04:51:04.087Z,28.49
2023-01-19T04:51:34.205Z,28.52
2023-01-19T04:52:04.207Z,28.48
2023-01-19T04:52:34.330Z,28.46
2023-01-19T04:53:04.326Z,28.48
2023-01-19T04:53:34.374Z,28.48
2023-01-19T04:54:04.572Z,28.47
2023-01-19T04:54:34.660Z,28.48
2023-01-19T04:55:04.660Z,28.42
2023-01-19T04:55:34.782Z,28.37
2023-01-19T04:56:04.898Z,28.38
2023-01-19T04:56:34.892Z,28.41
2023-01-19T04:57:04.888Z,28.39
2023-01-19T04:57:35.083Z,28.37
2023-01-19T04:58:05.058Z,28.37
2023-01-19T04:58:35.050Z,28.28
2023-01-19T04:59:05.165Z,28.33
2023-01-19T04:59:35.283Z,28.30
2023-01-19T05:00:05.349Z,28.31
2023-01-19T05:00:35.339Z,28.27
2023-01-19T05:01:05.490Z,28.27
2023-01-19T05:01:35.591Z,28.24
2023-01-19T05:02:05.638Z,28.20
2023-01-19T05:02:35.685Z,28.25
2023-01-19T05:03:06.274Z,28.15
2023-01-19T05:03:35.769Z,28.24
2023-01-19T05:04:05.764Z,28.26
2023-01-19T05:04:35.878Z,28.24
2023-01-19T05:05:05.999Z,28.18
2023-01-19T05:05:35.998Z,28.25
2023-01-19T05:06:06.112Z,28.20
2023-01-19T05:06:36.235Z,28.17
2023-01-19T05:07:06.224Z,28.22
2023-01-19T05:07:36.339Z,28.23
2023-01-19T05:08:06.347Z,28.22
2023-01-19T05:08:36.456Z,28.22
2023-01-19T05:09:06.450Z,28.16
2023-01-19T05:09:36.567Z,28.14
2023-01-19T05:10:06.689Z,28.11
2023-01-19T05:10:36.681Z,28.09
2023-01-19T05:11:06.806Z,28.13
2023-01-19T05:11:36.920Z,28.06
2023-01-19T05:12:07.050Z,28.07
2023-01-19T05:12:37.028Z,28.06
2023-01-19T05:13:07.143Z,27.94
2023-01-19T05:13:37.142Z,28.05
2023-01-19T05:14:07.144Z,27.98
2023-01-19T05:14:37.263Z,28.05
2023-01-19T05:15:07.599Z,27.97
2023-01-19T05:15:37.468Z,27.99
2023-01-19T05:16:07.552Z,27.99
2023-01-19T05:16:37.525Z,27.98
2023-01-19T05:17:07.668Z,27.94
2023-01-19T05:17:37.644Z,27.94
2023-01-19T05:18:07.640Z,27.97
2023-01-19T05:18:37.763Z,27.91
2023-01-19T05:19:07.756Z,27.88
2023-01-19T05:19:37.897Z,27.88
2023-01-19T05:20:08.020Z,27.99
2023-01-19T05:20:38.015Z,27.91
2023-01-19T05:21:07.990Z,27.81
2023-01-19T05:21:38.105Z,27.98
2023-01-19T05:22:08.122Z,28.01
2023-01-19T05:22:38.160Z,27.92
2023-01-19T05:23:08.189Z,27.90
2023-01-19T05:23:38.217Z,27.93
2023-01-19T05:24:08.245Z,27.92
2023-01-19T05:24:38.271Z,27.95
2023-01-19T05:25:08.299Z,27.97
2023-01-19T05:25:38.334Z,27.96
2023-01-19T05:26:09.599Z,27.98
2023-01-19T05:26:38.462Z,27.93
2023-01-19T05:27:08.510Z,27.90
2023-01-19T05:27:38.535Z,27.88
2023-01-19T05:28:08.565Z,27.84
2023-01-19T05:28:38.601Z,27.85
2023-01-19T05:29:08.631Z,27.82
2023-01-19T05:29:38.658Z,27.82
2023-01-19T05:30:08.710Z,27.80
2023-01-19T05:30:38.769Z,27.87
2023-01-19T05:31:08.999Z,27.93
2023-01-19T05:31:38.925Z,27.80
2023-01-19T05:32:08.944Z,27.80
2023-01-19T05:32:39.012Z,27.81
2023-01-19T05:33:09.026Z,27.71
2023-01-19T05:33:39.049Z,27.74
2023-01-19T05:34:09.103Z,27.75
2023-01-19T05:34:39.134Z,27.78
2023-01-19T05:35:09.172Z,27.76
2023-01-19T05:35:39.196Z,27.80
2023-01-19T05:36:09.244Z,27.86
2023-01-19T05:36:39.277Z,27.80
2023-01-19T05:37:09.311Z,27.77
2023-01-19T05:37:39.354Z,27.75
2023-01-19T05:38:09.386Z,27.68
2023-01-19T05:38:39.420Z,27.67
2023-01-19T05:39:09.445Z,27.60
2023-01-19T05:39:39.456Z,27.67
2023-01-19T05:40:09.535Z,27.71
2023-01-19T05:40:39.548Z,27.69
2023-01-19T05:41:09.581Z,27.73
2023-01-19T05:41:39.615Z,27.62
2023-01-19T05:42:09.639Z,27.67
2023-01-19T05:42:39.688Z,27.67
2023-01-19T05:43:09.748Z,27.71
2023-01-19T05:43:39.767Z,27.70
2023-01-19T05:44:09.798Z,27.70
2023-01-19T05:44:39.833Z,27.73
2023-01-19T05:45:09.870Z,27.73
2023-01-19T05:45:40.152Z,27.71
2023-01-19T05:46:09.928Z,27.73
2023-01-19T05:46:39.983Z,27.70
2023-01-19T05:47:10.052Z,27.64
2023-01-19T05:47:40.091Z,27.65
2023-01-19T05:48:10.313Z,27.69
2023-01-19T05:48:40.213Z,27.71
2023-01-19T05:49:10.228Z,27.56
2023-01-19T05:49:40.277Z,27.59
2023-01-19T05:50:10.306Z,27.53
2023-01-19T05:50:40.364Z,27.56
2023-01-19T05:51:10.386Z,27.53
2023-01-19T05:51:40.454Z,27.56
2023-01-19T05:52:10.480Z,27.56
2023-01-19T05:52:40.509Z,27.55
2023-01-19T05:53:10.544Z,27.55
2023-01-19T05:53:40.580Z,27.59
2023-01-19T05:54:10.599Z,27.58
2023-01-19T05:54:40.671Z,27.54
2023-01-19T05:55:10.693Z,27.54
2023-01-19T05:55:40.733Z,27.56
2023-01-19T05:56:10.754Z,27.56
2023-01-19T05:56:40.786Z,27.53
2023-01-19T05:57:10.815Z,27.53
2023-01-19T05:57:40.847Z,27.50
2023-01-19T05:58:10.882Z,27.51
2023-01-19T05:58:40.920Z,27.53
2023-01-19T05:59:10.970Z,27.48
2023-01-19T05:59:40.992Z,27.54
2023-01-19T06:00:11.023Z,27.53
2023-01-19T06:00:41.077Z,27.53
2023-01-19T06:01:11.166Z,27.51
2023-01-19T06:01:41.298Z,27.51
2023-01-19T06:02:11.342Z,27.57
2023-01-19T06:02:41.390Z,27.63
2023-01-19T06:03:11.405Z,27.65
2023-01-19T06:03:41.453Z,27.58
2023-01-19T06:04:11.478Z,27.51
2023-01-19T06:04:41.514Z,27.68
2023-01-19T06:05:11.531Z,27.75
2023-01-19T06:05:41.562Z,27.77
2023-01-19T06:06:11.600Z,27.80
2023-01-19T06:06:41.619Z,27.81
2023-01-19T06:07:11.649Z,27.83
2023-01-19T06:07:41.702Z,27.92
2023-01-19T06:08:11.725Z,27.87
2023-01-19T06:08:41.759Z,27.97
2023-01-19T06:09:11.789Z,27.89
2023-01-19T06:09:41.818Z,27.89
2023-01-19T06:10:11.856Z,27.92
2023-01-19T06:10:41.884Z,27.98
2023-01-19T06:11:11.988Z,27.89
2023-01-19T06:11:42.015Z,27.96
2023-01-19T06:12:12.014Z,28.01
2023-01-19T06:12:42.062Z,28.07
2023-01-19T06:13:12.039Z,28.10
2023-01-19T06:13:42.297Z,28.10
2023-01-19T06:14:12.052Z,28.07
2023-01-19T06:14:42.150Z,28.05
2023-01-19T06:15:12.146Z,27.99
2023-01-19T06:15:42.651Z,28.07
2023-01-19T06:16:12.379Z,28.05
2023-01-19T06:16:42.443Z,28.05
2023-01-19T06:17:12.431Z,28.05
2023-01-19T06:17:42.428Z,28.10
2023-01-19T06:18:12.461Z,28.08
2023-01-19T06:18:42.464Z,28.10
2023-01-19T06:19:12.490Z,28.08
2023-01-19T06:19:42.592Z,28.17
2023-01-19T06:20:12.695Z,28.19
2023-01-19T06:20:42.720Z,28.05
2023-01-19T06:21:12.697Z,28.14
2023-01-19T06:21:42.819Z,28.13
2023-01-19T06:22:12.859Z,28.10
2023-01-19T06:22:42.888Z,27.97
2023-01-19T06:23:12.920Z,28.10
2023-01-19T06:23:42.953Z,28.08
2023-01-19T06:24:14.446Z,28.14
2023-01-19T06:24:43.057Z,28.05
2023-01-19T06:25:13.139Z,28.07
2023-01-19T06:25:43.177Z,28.05
2023-01-19T06:26:13.211Z,28.11
2023-01-19T06:26:43.242Z,28.15
2023-01-19T06:27:13.271Z,28.13